Time;durP1;ratioP1;P1;durP2;ratioP2;P2;SDS_P1;SDS_P2;PMS_P1;PMS_P2;Temp;Humidity;BMP_temperature;BMP_pressure;BME280_temperature;BME280_humidity;BME280_pressure;Samples;Min_cycle;Max_cycle;Signal;HPM_P1;HPM_P2
2023/10/13 00:00:40;;;;;;;8.17;7.57;;;19.50;16.40;;;;;;6122695;23;20378;-55
2023/10/13 00:03:14;;;;;;;8.57;7.60;;;19.50;16.10;;;;;;6122337;23;20386;-57
2023/10/13 00:05:41;;;;;;;8.60;7.80;;;19.40;15.70;;;;;;6121518;23;20392;-54
2023/10/13 00:08:08;;;;;;;8.53;7.87;;;19.50;15.80;;;;;;6122233;23;20727;-56
2023/10/13 00:10:34;;;;;;;8.50;7.93;;;19.50;16.20;;;;;;6122130;23;20382;-55
2023/10/13 00:13:11;;;;;;;9.13;8.37;;;19.50;15.60;;;;;;6122630;23;20921;-52
2023/10/13 00:15:58;;;;;;;8.30;7.70;;;19.50;15.30;;;;;;6121429;23;20192;-52
2023/10/13 00:18:26;;;;;;;8.77;7.97;;;19.50;15.30;;;;;;6121675;23;20441;-52
2023/10/13 00:20:56;;;;;;;9.30;8.50;;;19.50;15.40;;;;;;6122012;23;20692;-55
2023/10/13 00:23:22;;;;;;;8.53;7.90;;;19.40;15.50;;;;;;6122770;23;20390;-55
2023/10/13 00:25:59;;;;;;;9.23;8.43;;;19.40;15.60;;;;;;6121553;23;20696;-55
2023/10/13 00:28:35;;;;;;;7.87;7.27;;;19.40;15.60;;;;;;6123012;23;20792;-55
2023/10/13 00:31:10;;;;;;;9.80;8.80;;;19.40;15.80;;;;;;6121845;23;20386;-55
2023/10/13 00:33:37;;;;;;;8.20;7.60;;;19.40;15.70;;;;;;6121263;23;20937;-54
2023/10/13 00:36:04;;;;;;;8.83;8.13;;;19.30;15.60;;;;;;6121220;23;20385;-56
2023/10/13 00:38:30;;;;;;;8.73;8.03;;;19.40;15.70;;;;;;6121239;23;20389;-53
2023/10/13 00:41:03;;;;;;;9.83;7.87;;;19.40;15.40;;;;;;6121884;23;20378;-56
2023/10/13 00:43:32;;;;;;;7.77;7.27;;;19.40;15.30;;;;;;6122183;23;20560;-54
2023/10/13 00:48:43;;;;;;;8.27;7.33;;;19.40;14.70;;;;;;6123486;23;20366;-53
2023/10/13 00:51:32;;;;;;;9.00;8.40;;;19.40;14.90;;;;;;6121540;23;20421;-53
2023/10/13 00:54:11;;;;;;;9.03;8.43;;;19.30;14.70;;;;;;6121942;23;20413;-54
2023/10/13 00:56:57;;;;;;;8.93;8.30;;;19.30;14.50;;;;;;6121549;23;20382;-53
2023/10/13 00:59:25;;;;;;;8.70;8.10;;;19.30;14.50;;;;;;6121677;23;20413;-54
2023/10/13 01:01:54;;;;;;;9.43;8.73;;;19.30;14.30;;;;;;6121469;23;20390;-52
2023/10/13 01:04:23;;;;;;;8.50;7.57;;;19.30;14.20;;;;;;6121040;23;20386;-56
2023/10/13 01:06:48;;;;;;;7.70;7.27;;;19.30;14.30;;;;;;6120732;23;20390;-55
2023/10/13 01:09:17;;;;;;;8.67;7.80;;;19.30;14.20;;;;;;6121956;23;20378;-55
2023/10/13 01:11:51;;;;;;;8.83;8.03;;;19.30;14.10;;;;;;6121427;23;20186;-55
2023/10/13 01:14:18;;;;;;;13.73;8.00;;;19.30;13.90;;;;;;6121284;23;20378;-55
2023/10/13 01:16:52;;;;;;;7.63;7.13;;;19.30;13.90;;;;;;6121043;23;20440;-52
2023/10/13 01:19:24;;;;;;;8.53;7.83;;;19.30;14.00;;;;;;6121390;23;20370;-56
2023/10/13 01:22:02;;;;;;;9.13;8.33;;;19.30;14.70;;;;;;6122128;23;20938;-52
2023/10/13 01:24:31;;;;;;;9.80;9.03;;;19.30;14.90;;;;;;6120858;23;20385;-54
2023/10/13 01:26:57;;;;;;;9.03;8.23;;;19.30;14.50;;;;;;6120648;23;20396;-54
2023/10/13 01:29:28;;;;;;;8.47;7.90;;;19.20;14.50;;;;;;6121406;23;20405;-55
2023/10/13 01:31:54;;;;;;;8.20;7.60;;;19.20;14.40;;;;;;6098072;23;20973;-51
2023/10/13 01:34:22;;;;;;;9.03;8.20;;;19.20;14.60;;;;;;6121169;23;20405;-55
2023/10/13 01:36:50;;;;;;;9.03;8.23;;;19.20;14.70;;;;;;6121228;23;20154;-56
2023/10/13 01:39:17;;;;;;;9.07;8.17;;;19.20;14.80;;;;;;6121663;23;20721;-55
2023/10/13 01:41:43;;;;;;;8.73;8.13;;;19.10;15.00;;;;;;6122286;23;20396;-54
2023/10/13 01:44:14;;;;;;;8.90;8.10;;;19.10;14.90;;;;;;6122279;23;20381;-55
2023/10/13 01:46:42;;;;;;;8.83;8.30;;;19.10;14.80;;;;;;6120202;23;20808;-53
2023/10/13 01:49:08;;;;;;;8.10;7.60;;;19.10;14.80;;;;;;6122040;23;20417;-55
2023/10/13 01:51:34;;;;;;;8.80;8.20;;;19.10;14.90;;;;;;6120412;23;20390;-56
2023/10/13 01:54:03;;;;;;;9.10;8.40;;;19.00;14.90;;;;;;6121019;23;20405;-54
2023/10/13 01:56:30;;;;;;;10.20;8.80;;;19.00;14.80;;;;;;6121180;23;20390;-55
2023/10/13 01:58:56;;;;;;;8.53;8.00;;;19.10;15.00;;;;;;6121587;23;20389;-55
2023/10/13 02:01:27;;;;;;;9.43;8.43;;;19.10;15.00;;;;;;6121746;23;20382;-54
2023/10/13 02:04:01;;;;;;;9.67;8.97;;;19.00;15.00;;;;;;6122675;23;20374;-54
2023/10/13 02:06:32;;;;;;;8.53;7.93;;;19.00;15.10;;;;;;6122061;23;20382;-55
2023/10/13 02:09:10;;;;;;;8.93;8.33;;;18.90;15.00;;;;;;6122850;23;20370;-54
2023/10/13 02:11:38;;;;;;;9.30;8.60;;;18.90;15.00;;;;;;6122227;23;20386;-52
2023/10/13 02:14:04;;;;;;;9.47;8.60;;;18.90;15.10;;;;;;6121143;23;20858;-54
2023/10/13 02:16:30;;;;;;;9.17;8.50;;;18.90;15.00;;;;;;6119840;23;20382;-55
2023/10/13 02:18:57;;;;;;;9.37;8.67;;;18.90;15.40;;;;;;6121165;23;20158;-50
2023/10/13 02:21:31;;;;;;;8.47;7.97;;;18.80;15.40;;;;;;6121175;23;20377;-54
2023/10/13 02:24:03;;;;;;;9.97;9.07;;;18.80;15.50;;;;;;6121687;23;20410;-54
2023/10/13 02:26:38;;;;;;;9.23;8.47;;;18.80;15.70;;;;;;6120829;23;20434;-56
2023/10/13 02:29:07;;;;;;;9.40;8.70;;;18.80;15.60;;;;;;6121706;23;20400;-56
2023/10/13 02:31:36;;;;;;;8.90;8.03;;;18.80;15.70;;;;;;6120701;23;20520;-56
2023/10/13 02:34:07;;;;;;;9.33;8.70;;;18.80;15.80;;;;;;6120447;23;20488;-54
2023/10/13 02:36:36;;;;;;;9.07;8.47;;;18.80;16.20;;;;;;6119434;23;20771;-53
2023/10/13 02:39:08;;;;;;;9.60;8.70;;;18.70;15.70;;;;;;6122363;23;20366;-55
2023/10/13 02:41:38;;;;;;;9.53;8.63;;;18.70;15.80;;;;;;6122889;23;20713;-56
2023/10/13 02:44:19;;;;;;;9.27;8.37;;;18.70;15.80;;;;;;6121985;23;20382;-56
2023/10/13 02:46:50;;;;;;;9.70;8.80;;;18.70;16.30;;;;;;6121750;23;20381;-55
2023/10/13 02:49:19;;;;;;;9.80;9.10;;;18.70;16.20;;;;;;6122584;23;20385;-49
2023/10/13 02:51:45;;;;;;;10.00;9.00;;;18.70;16.00;;;;;;6121676;23;20432;-47
2023/10/13 02:54:11;;;;;;;9.83;9.03;;;18.70;16.00;;;;;;6120790;23;20937;-53
2023/10/13 02:56:47;;;;;;;10.43;9.60;;;18.70;16.20;;;;;;6119958;23;20465;-46
2023/10/13 02:59:13;;;;;;;10.00;9.20;;;18.60;16.50;;;;;;6121258;23;20370;-49
2023/10/13 03:01:39;;;;;;;18.53;9.60;;;18.70;16.50;;;;;;6121649;23;20843;-50
2023/10/13 03:04:08;;;;;;;9.10;8.50;;;18.70;16.50;;;;;;6122521;23;20158;-53
2023/10/13 03:06:35;;;;;;;9.77;9.07;;;18.70;16.40;;;;;;6122136;23;20157;-49
2023/10/13 03:09:21;;;;;;;8.90;8.27;;;18.70;16.40;;;;;;6123086;23;20382;-48
2023/10/13 03:11:51;;;;;;;10.10;9.33;;;18.60;16.50;;;;;;6122603;23;20429;-51
2023/10/13 03:14:31;;;;;;;9.57;9.00;;;18.60;16.50;;;;;;6124487;23;20370;-48
2023/10/13 03:17:03;;;;;;;11.07;10.17;;;18.60;16.80;;;;;;6122609;23;20382;-46
2023/10/13 03:19:32;;;;;;;9.93;9.23;;;18.60;16.50;;;;;;6122859;23;20641;-48
2023/10/13 03:22:12;;;;;;;10.13;9.50;;;18.60;16.50;;;;;;6123245;23;20540;-49
2023/10/13 03:24:45;;;;;;;11.00;10.00;;;18.60;16.50;;;;;;6122926;23;20389;-49
2023/10/13 03:27:11;;;;;;;10.80;9.90;;;18.60;16.50;;;;;;6122584;23;20382;-49
2023/10/13 03:29:42;;;;;;;11.40;10.50;;;18.60;16.50;;;;;;6121615;23;20477;-51
2023/10/13 03:32:15;;;;;;;10.50;9.60;;;18.50;16.70;;;;;;6122030;23;20425;-56
2023/10/13 03:37:40;;;;;;;10.93;10.03;;;18.50;17.40;;;;;;6133160;23;20358;-54
2023/10/13 03:40:33;;;;;;;10.27;9.57;;;18.50;17.00;;;;;;6122028;23;20384;-55
2023/10/13 03:43:05;;;;;;;10.10;9.40;;;18.50;17.00;;;;;;6124151;23;20440;-55
2023/10/13 03:45:41;;;;;;;10.67;9.67;;;18.40;16.90;;;;;;6121585;23;20385;-52
2023/10/13 03:48:09;;;;;;;10.37;9.30;;;18.40;17.00;;;;;;6122163;23;20460;-55
2023/10/13 03:50:36;;;;;;;10.17;9.40;;;18.40;16.70;;;;;;6121578;23;20390;-48
2023/10/13 03:53:03;;;;;;;9.03;8.53;;;18.40;16.90;;;;;;6121980;23;20739;-47
2023/10/13 03:55:29;;;;;;;10.53;9.83;;;18.40;16.90;;;;;;6121795;23;20382;-48
2023/10/13 03:57:56;;;;;;;10.63;9.70;;;18.40;16.90;;;;;;6122046;23;20386;-46
2023/10/13 04:00:26;;;;;;;8.70;8.20;;;18.40;16.80;;;;;;6122167;23;20847;-49
2023/10/13 04:03:38;;;;;;;11.20;10.30;;;18.30;16.80;;;;;;6121858;23;20374;-55
2023/10/13 04:32:29;;;;;;;11.47;10.57;;;18.20;17.20;;;;;;6133156;23;20903;-52
2023/10/13 04:35:10;;;;;;;10.50;9.60;;;18.20;17.00;;;;;;6146420;23;20397;-50
2023/10/13 04:38:00;;;;;;;12.10;11.03;;;18.20;16.90;;;;;;6126208;23;20377;-51
2023/10/13 04:40:28;;;;;;;11.57;10.73;;;18.20;16.80;;;;;;6127097;23;20729;-52
2023/10/13 04:42:56;;;;;;;11.97;10.93;;;18.20;16.80;;;;;;6126565;23;20397;-50
2023/10/13 04:54:12;;;;;;;10.90;8.83;;;18.20;17.00;;;;;;6152074;23;20503;-55
2023/10/13 04:57:25;;;;;;;10.90;9.90;;;18.30;17.10;;;;;;6125676;23;20389;-49
2023/10/13 04:59:36;;;;;;;9.70;8.90;;;18.20;17.20;;;;;;6136297;23;20877;-51
2023/10/13 05:51:33;;;;;;;10.30;9.53;;;18.30;16.30;;;;;;6163051;23;20392;-45
2023/10/13 06:29:50;;;;;;;10.73;9.80;;;18.50;16.20;;;;;;6153078;23;20500;-48
2023/10/13 06:32:16;;;;;;;10.20;9.40;;;18.60;15.60;;;;;;6126794;23;20428;-52
2023/10/13 06:34:45;;;;;;;10.63;9.67;;;18.50;14.60;;;;;;6122231;23;20170;-50
2023/10/13 06:37:30;;;;;;;10.33;9.43;;;18.50;14.80;;;;;;6123469;23;20886;-49
2023/10/13 06:40:07;;;;;;;10.00;9.03;;;18.50;15.60;;;;;;6124141;23;20807;-49
2023/10/13 06:42:42;;;;;;;10.33;9.53;;;18.50;15.80;;;;;;6124192;23;20877;-52
2023/10/13 06:45:08;;;;;;;10.50;9.70;;;18.60;15.70;;;;;;6124847;23;20381;-48
2023/10/13 06:47:42;;;;;;;10.73;9.93;;;18.60;15.10;;;;;;6124182;23;20389;-47
2023/10/13 06:50:15;;;;;;;9.57;8.93;;;18.60;15.90;;;;;;6124512;23;20456;-47
2023/10/13 06:52:44;;;;;;;10.13;9.33;;;18.60;16.20;;;;;;6123405;23;20424;-49
2023/10/13 06:55:16;;;;;;;10.60;9.90;;;18.60;15.80;;;;;;6123987;23;20377;-49
2023/10/13 06:57:46;;;;;;;10.13;9.40;;;18.60;15.90;;;;;;6123782;23;20382;-51
2023/10/13 07:00:19;;;;;;;9.23;8.67;;;18.60;15.60;;;;;;6123672;23;20720;-46
2023/10/13 07:02:52;;;;;;;11.50;10.50;;;18.60;15.70;;;;;;6122582;23;20711;-51
2023/10/13 07:05:19;;;;;;;10.87;9.97;;;18.70;15.80;;;;;;6123241;23;20435;-50
2023/10/13 07:07:45;;;;;;;10.20;9.30;;;18.70;15.90;;;;;;6124830;23;20388;-49
2023/10/13 07:10:12;;;;;;;11.90;10.73;;;18.60;15.70;;;;;;6124925;23;20385;-49
2023/10/13 07:12:49;;;;;;;11.40;10.23;;;18.70;15.70;;;;;;6100286;23;20445;-46
2023/10/13 07:17:44;;;;;;;10.93;9.80;;;18.70;15.90;;;;;;6126871;23;20401;-50
2023/10/13 07:20:23;;;;;;;11.23;10.30;;;18.70;15.60;;;;;;6125030;23;20386;-46
2023/10/13 07:23:06;;;;;;;11.10;10.20;;;18.80;16.10;;;;;;6119233;23;20759;-47
2023/10/13 07:25:33;;;;;;;10.43;9.53;;;18.80;16.20;;;;;;6119920;23;20381;-54
2023/10/13 07:28:08;;;;;;;12.20;10.53;;;18.80;14.20;;;;;;6124693;23;20408;-53
2023/10/13 07:33:19;;;;;;;10.20;9.30;;;18.90;13.00;;;;;;6116167;23;20437;-54
2023/10/13 07:35:46;;;;;;;11.07;10.13;;;19.20;12.50;;;;;;6123649;23;20397;-54
2023/10/13 07:38:13;;;;;;;9.60;9.00;;;19.30;12.60;;;;;;6129739;23;20403;-52
2023/10/13 07:40:41;;;;;;;11.13;9.67;;;19.50;11.50;;;;;;6129481;23;20404;-53
2023/10/13 07:43:10;;;;;;;11.17;10.07;;;19.70;11.30;;;;;;6129431;23;20389;-55
2023/10/13 07:45:40;;;;;;;9.70;8.63;;;19.80;11.50;;;;;;6129332;23;20771;-52
2023/10/13 07:48:19;;;;;;;11.73;9.73;;;19.90;10.70;;;;;;6129064;23;20381;-49
2023/10/13 07:51:01;;;;;;;9.67;8.90;;;19.90;11.30;;;;;;6129333;23;20389;-45
2023/10/13 07:53:28;;;;;;;11.00;10.20;;;20.00;10.10;;;;;;6129082;23;20430;-53
2023/10/13 07:56:00;;;;;;;10.40;9.03;;;20.10;10.80;;;;;;6128842;23;20472;-53
2023/10/13 07:58:27;;;;;;;11.77;9.07;;;20.10;10.50;;;;;;6129351;23;20389;-54
2023/10/13 08:01:06;;;;;;;9.73;9.03;;;20.20;10.50;;;;;;6129247;23;20435;-50
2023/10/13 08:03:37;;;;;;;10.40;9.60;;;20.30;10.10;;;;;;6129272;23;20154;-54
2023/10/13 08:06:26;;;;;;;10.13;9.43;;;20.40;10.20;;;;;;6155223;23;20368;-55
2023/10/13 08:08:54;;;;;;;9.50;8.90;;;20.40;9.70;;;;;;6155180;23;20413;-52
2023/10/13 08:11:34;;;;;;;9.20;8.50;;;20.50;9.00;;;;;;6155266;23;20377;-55
2023/10/13 08:19:32;;;;;;;10.10;9.40;;;20.80;8.60;;;;;;6165540;23;20817;-53
2023/10/13 08:21:59;;;;;;;9.30;8.63;;;20.90;8.40;;;;;;6129113;23;20396;-54
2023/10/13 08:27:48;;;;;;;8.93;8.23;;;21.00;7.70;;;;;;6127532;23;20631;-52
2023/10/13 08:30:27;;;;;;;14.50;8.57;;;21.10;7.40;;;;;;6129097;23;20436;-49
2023/10/13 08:32:56;;;;;;;9.23;8.23;;;21.10;7.30;;;;;;6128661;23;20451;-47
2023/10/13 08:35:26;;;;;;;9.73;8.60;;;21.20;7.10;;;;;;6124021;23;20405;-49
2023/10/13 08:40:42;;;;;;;8.47;7.63;;;21.30;6.80;;;;;;6126372;23;20693;-53
2023/10/13 08:43:11;;;;;;;8.77;7.97;;;21.30;6.60;;;;;;6125532;23;20169;-52
2023/10/13 08:56:15;;;;;;;8.70;7.90;;;21.80;5.50;;;;;;6125778;23;20370;-57
2023/10/13 09:04:22;;;;;;;9.10;8.33;;;22.10;5.40;;;;;;6135551;23;20680;-57
2023/10/13 09:09:40;;;;;;;9.20;8.50;;;22.30;4.90;;;;;;6135790;23;20815;-57
2023/10/13 09:12:14;;;;;;;9.00;8.40;;;22.50;4.40;;;;;;6123956;23;20413;-57
2023/10/13 09:14:44;;;;;;;7.43;7.03;;;22.70;4.10;;;;;;6123997;23;20753;-57
2023/10/13 09:19:55;;;;;;;9.30;7.87;;;23.00;3.60;;;;;;6135571;23;20371;-55
2023/10/13 09:22:37;;;;;;;8.00;7.13;;;23.10;3.30;;;;;;6123959;23;20368;-56
2023/10/13 09:25:13;;;;;;;8.30;7.60;;;23.30;2.90;;;;;;6123768;23;20379;-56
2023/10/13 09:27:39;;;;;;;9.43;8.60;;;23.40;2.80;;;;;;6123869;23;20378;-56
2023/10/13 09:30:18;;;;;;;9.80;8.87;;;23.50;2.30;;;;;;6123672;23;20821;-55
2023/10/13 09:33:01;;;;;;;9.47;8.50;;;23.50;2.40;;;;;;6123678;23;20216;-56
2023/10/13 09:35:28;;;;;;;9.07;8.37;;;23.50;2.00;;;;;;6128540;23;20388;-57
2023/10/13 09:37:56;;;;;;;8.97;8.27;;;23.50;2.00;;;;;;6128483;23;20716;-55
2023/10/13 09:40:26;;;;;;;8.90;8.20;;;23.50;2.00;;;;;;6128923;23;20381;-58
2023/10/13 09:42:55;;;;;;;9.83;7.83;;;23.50;2.00;;;;;;6128742;23;20385;-57
2023/10/13 09:45:27;;;;;;;8.80;8.10;;;23.50;1.70;;;;;;6128635;23;20408;-56
2023/10/13 09:47:57;;;;;;;9.23;8.33;;;23.60;2.00;;;;;;6128706;23;20373;-57
2023/10/13 09:50:25;;;;;;;7.50;7.00;;;23.70;1.60;;;;;;6128957;23;20369;-56
2023/10/13 09:52:52;;;;;;;8.90;8.10;;;23.80;1.70;;;;;;6128102;23;20428;-55
2023/10/13 09:55:29;;;;;;;8.80;8.07;;;23.80;1.60;;;;;;6128203;23;20437;-56
2023/10/13 09:58:10;;;;;;;8.40;7.60;;;23.80;1.70;;;;;;6128425;23;20373;-57
2023/10/13 10:06:14;;;;;;;9.23;8.20;;;24.10;1.40;;;;;;6154367;23;20381;-53
2023/10/13 10:08:48;;;;;;;8.80;7.97;;;24.10;1.40;;;;;;6128475;23;20863;-57
2023/10/13 10:11:25;;;;;;;8.77;7.97;;;24.20;1.30;;;;;;6128136;23;20369;-56
2023/10/13 10:14:00;;;;;;;9.23;8.33;;;24.30;1.00;;;;;;6128057;23;20424;-56
2023/10/13 10:16:52;;;;;;;9.07;8.03;;;24.30;1.00;;;;;;6128555;23;20475;-45
2023/10/13 10:19:18;;;;;;;7.77;7.17;;;24.40;1.00;;;;;;6128261;23;20377;-51
2023/10/13 10:21:44;;;;;;;7.93;7.30;;;24.60;1.00;;;;;;6128660;23;20377;-50
2023/10/13 10:24:29;;;;;;;6.20;5.90;;;24.70;1.00;;;;;;6128016;23;20244;-49
2023/10/13 10:26:56;;;;;;;8.43;7.73;;;24.70;1.00;;;;;;6127936;23;20465;-51
2023/10/13 10:29:21;;;;;;;8.10;7.50;;;24.70;1.00;;;;;;6128032;23;20392;-53
2023/10/13 10:31:47;;;;;;;8.30;7.80;;;24.70;1.00;;;;;;6127890;23;20385;-51
2023/10/13 10:34:20;;;;;;;13.30;6.93;;;24.70;1.00;;;;;;6123051;23;20174;-51
2023/10/13 10:36:58;;;;;;;8.17;7.57;;;24.80;1.00;;;;;;6122867;23;20386;-52
2023/10/13 10:39:34;;;;;;;7.67;7.07;;;24.90;1.00;;;;;;6123027;23;20406;-53
2023/10/13 10:42:29;;;;;;;7.97;7.17;;;25.00;1.00;;;;;;6123127;23;20401;-53
2023/10/13 10:45:05;;;;;;;8.33;7.53;;;24.90;1.00;;;;;;6123067;23;20378;-51
2023/10/13 10:47:31;;;;;;;8.13;7.50;;;24.90;1.00;;;;;;6123084;23;20385;-53
2023/10/13 10:50:07;;;;;;;7.57;6.90;;;24.90;1.00;;;;;;6122999;23;20874;-51
2023/10/13 10:52:37;;;;;;;7.70;7.20;;;24.90;1.00;;;;;;6123193;23;20182;-53
2023/10/13 10:55:07;;;;;;;8.37;7.67;;;24.90;1.00;;;;;;6123537;23;20756;-53
2023/10/13 10:57:37;;;;;;;7.17;6.67;;;24.90;1.00;;;;;;6122993;23;20385;-53
2023/10/13 11:00:14;;;;;;;7.57;6.73;;;24.80;1.00;;;;;;6122672;23;20425;-52
2023/10/13 11:02:40;;;;;;;7.23;6.63;;;24.80;1.00;;;;;;6123149;23;20444;-48
2023/10/13 11:05:09;;;;;;;12.30;6.57;;;24.80;1.00;;;;;;6122993;23;20394;-52
2023/10/13 11:07:35;;;;;;;7.07;6.63;;;24.90;1.00;;;;;;6123001;23;20389;-54
2023/10/13 11:10:19;;;;;;;8.30;7.23;;;24.90;1.00;;;;;;6123135;23;20385;-49
2023/10/13 11:15:57;;;;;;;6.93;6.53;;;25.20;1.00;;;;;;6112745;23;20409;-53
2023/10/13 11:18:34;;;;;;;6.80;6.30;;;25.30;1.00;;;;;;6123142;23;20461;-51
2023/10/13 11:21:00;;;;;;;7.80;7.17;;;25.40;1.00;;;;;;6122716;23;20460;-50
2023/10/13 11:23:25;;;;;;;8.00;7.53;;;25.50;1.00;;;;;;6124229;23;20420;-51
2023/10/13 11:26:00;;;;;;;9.30;7.40;;;25.40;1.00;;;;;;6124568;23;20392;-47
2023/10/13 11:28:31;;;;;;;8.17;7.67;;;25.50;1.00;;;;;;6124894;23;20165;-47
2023/10/13 11:30:58;;;;;;;7.33;6.73;;;25.50;1.00;;;;;;6124674;23;20389;-47
2023/10/13 11:33:28;;;;;;;8.13;7.60;;;25.60;1.00;;;;;;6129092;23;20443;-52
2023/10/13 11:41:21;;;;;;;10.03;7.27;;;25.80;1.00;;;;;;6165832;23;20365;-50
2023/10/13 11:49:05;;;;;;;6.50;6.00;;;25.80;1.00;;;;;;6165745;23;20362;-52
2023/10/13 11:51:32;;;;;;;8.00;7.20;;;25.90;1.00;;;;;;6129697;23;20598;-51
2023/10/13 11:53:58;;;;;;;8.33;7.13;;;26.00;1.00;;;;;;6128993;23;20456;-51
2023/10/13 11:56:24;;;;;;;7.40;7.00;;;26.00;1.00;;;;;;6128910;23;20868;-51
2023/10/13 11:58:51;;;;;;;8.20;7.50;;;25.90;1.00;;;;;;6129718;23;20381;-49
2023/10/13 12:12:26;;;;;;;7.83;7.33;;;25.60;1.00;;;;;;6131406;23;20424;-50
2023/10/13 12:14:52;;;;;;;11.83;7.43;;;25.90;1.00;;;;;;6129358;23;20373;-46
2023/10/13 12:17:34;;;;;;;7.80;7.30;;;26.10;1.00;;;;;;6155309;23;20408;-48
2023/10/13 12:20:05;;;;;;;8.43;7.70;;;26.20;1.00;;;;;;6129322;23;20373;-50
2023/10/13 12:22:51;;;;;;;7.80;7.40;;;26.30;1.00;;;;;;6129331;23;20884;-52
2023/10/13 12:25:34;;;;;;;8.97;8.20;;;26.30;1.00;;;;;;6129275;23;20389;-48
2023/10/13 12:28:18;;;;;;;8.07;7.47;;;26.40;1.00;;;;;;6129372;23;20373;-47
2023/10/13 12:30:53;;;;;;;7.23;6.80;;;26.40;1.00;;;;;;6129296;23;20369;-50
2023/10/13 12:33:36;;;;;;;8.27;7.53;;;26.50;1.00;;;;;;6128856;23;20756;-52
2023/10/13 12:36:11;;;;;;;7.20;6.80;;;26.60;1.00;;;;;;6128728;23;20444;-50
2023/10/13 12:38:51;;;;;;;8.63;7.83;;;26.60;1.00;;;;;;6129173;23;20377;-50
2023/10/13 12:49:49;;;;;;;8.20;7.60;;;26.50;1.00;;;;;;6154987;23;20408;-58
2023/10/13 12:52:34;;;;;;;7.13;6.60;;;26.60;1.00;;;;;;6128567;23;20420;-57
2023/10/13 12:55:06;;;;;;;8.63;6.77;;;26.60;1.00;;;;;;6129042;23;20405;-57
2023/10/13 12:57:33;;;;;;;7.50;6.90;;;26.60;1.00;;;;;;6129022;23;20377;-54
2023/10/13 12:59:58;;;;;;;8.27;7.67;;;26.70;1.00;;;;;;6128680;23;20416;-55
2023/10/13 13:02:26;;;;;;;7.37;7.03;;;26.80;1.00;;;;;;6129084;23;20976;-57
2023/10/13 13:05:11;;;;;;;8.10;7.40;;;26.80;1.00;;;;;;6128561;23;20154;-57
2023/10/13 13:07:47;;;;;;;8.73;8.10;;;26.80;1.00;;;;;;6154954;23;20829;-57
2023/10/13 13:10:16;;;;;;;7.73;7.13;;;26.80;1.00;;;;;;6128953;23;20440;-57
2023/10/13 13:12:42;;;;;;;7.37;6.77;;;26.60;1.00;;;;;;6128849;23;20496;-60
2023/10/13 13:15:12;;;;;;;7.13;6.47;;;26.50;1.00;;;;;;6128955;23;20381;-55
2023/10/13 13:17:38;;;;;;;8.07;7.57;;;26.40;1.00;;;;;;6129582;23;20161;-55
2023/10/13 13:20:11;;;;;;;7.17;6.57;;;26.40;1.00;;;;;;6128947;23;20385;-53
2023/10/13 13:22:40;;;;;;;7.37;6.80;;;26.60;1.00;;;;;;6128821;23;20384;-52
2023/10/13 13:25:08;;;;;;;7.87;7.30;;;26.90;1.00;;;;;;6128817;23;20753;-56
2023/10/13 13:27:34;;;;;;;8.27;7.00;;;27.10;1.00;;;;;;6128671;23;20391;-55
2023/10/13 13:30:00;;;;;;;7.83;7.23;;;27.20;1.00;;;;;;6129210;23;20413;-55
2023/10/13 13:32:28;;;;;;;7.00;6.60;;;27.30;1.00;;;;;;6128739;23;20577;-55
2023/10/13 13:34:58;;;;;;;8.43;7.73;;;27.30;1.00;;;;;;6123536;23;20768;-54
2023/10/13 13:37:27;;;;;;;7.20;6.80;;;27.00;1.00;;;;;;6123760;23;20374;-56
2023/10/13 13:39:53;;;;;;;8.20;7.50;;;27.00;1.00;;;;;;6123785;23;20388;-56
2023/10/13 13:42:18;;;;;;;7.40;6.80;;;27.20;1.00;;;;;;6123691;23;20708;-54
2023/10/13 13:44:46;;;;;;;7.60;7.10;;;27.30;1.00;;;;;;6123648;23;20162;-56
2023/10/13 13:47:12;;;;;;;8.93;7.53;;;27.40;1.00;;;;;;6123074;23;20249;-56
2023/10/13 13:49:50;;;;;;;7.87;7.27;;;27.40;1.00;;;;;;6123470;23;20724;-56
2023/10/13 13:52:21;;;;;;;8.07;7.43;;;27.50;1.00;;;;;;6123547;23;20798;-55
2023/10/13 13:54:47;;;;;;;7.37;6.97;;;27.60;1.00;;;;;;6123765;23;20375;-52
2023/10/13 13:57:13;;;;;;;8.80;7.97;;;27.50;1.00;;;;;;6123527;23;20437;-54
2023/10/13 13:59:39;;;;;;;8.30;7.47;;;27.50;1.00;;;;;;6123531;23;20511;-56
2023/10/13 14:02:19;;;;;;;7.80;7.10;;;27.60;1.00;;;;;;6123590;23;20216;-56
2023/10/13 14:04:46;;;;;;;7.23;6.83;;;27.60;1.00;;;;;;6123938;23;20373;-56
2023/10/13 14:07:14;;;;;;;7.93;7.33;;;27.60;1.00;;;;;;6123424;23;20879;-56
2023/10/13 14:09:43;;;;;;;7.67;7.27;;;27.50;1.00;;;;;;6123520;23;20703;-57
2023/10/13 14:14:56;;;;;;;6.80;6.50;;;27.30;1.00;;;;;;6125175;23;20680;-58
2023/10/13 14:17:29;;;;;;;7.03;6.53;;;27.30;1.00;;;;;;6123227;23;20386;-57
2023/10/13 14:19:58;;;;;;;7.77;6.50;;;27.30;1.00;;;;;;6123429;23;20401;-57
2023/10/13 14:22:27;;;;;;;6.87;6.37;;;27.10;1.00;;;;;;6125110;23;20370;-57
2023/10/13 14:24:56;;;;;;;7.30;6.70;;;27.20;1.00;;;;;;6123490;23;20468;-56
2023/10/13 14:27:25;;;;;;;7.10;6.60;;;27.20;1.00;;;;;;6123218;23;20390;-57
2023/10/13 14:29:56;;;;;;;7.27;6.90;;;27.30;1.00;;;;;;6123545;23;20392;-56
2023/10/13 14:32:24;;;;;;;7.90;7.30;;;27.30;1.00;;;;;;6123430;23;20435;-56
2023/10/13 14:34:56;;;;;;;7.40;6.90;;;27.20;1.00;;;;;;6123308;23;20397;-55
2023/10/13 14:37:30;;;;;;;8.90;7.33;;;27.20;1.00;;;;;;6123335;23;20441;-56
2023/10/13 14:39:57;;;;;;;6.97;6.40;;;27.20;1.00;;;;;;6123539;23;20392;-55
2023/10/13 14:42:27;;;;;;;9.77;8.70;;;27.20;1.00;;;;;;6123585;23;20449;-57
2023/10/13 14:44:55;;;;;;;8.00;6.80;;;27.20;1.00;;;;;;6123547;23;20460;-56
2023/10/13 14:47:27;;;;;;;7.77;6.67;;;27.10;1.00;;;;;;6122551;23;20390;-55
2023/10/13 14:49:54;;;;;;;7.77;7.17;;;27.00;1.00;;;;;;6122728;23;20390;-63
2023/10/13 14:52:21;;;;;;;7.60;7.00;;;27.00;1.00;;;;;;6123414;23;20433;-56
2023/10/13 14:54:47;;;;;;;8.47;7.60;;;27.00;1.00;;;;;;6123499;23;20384;-56
2023/10/13 14:57:13;;;;;;;8.27;7.43;;;27.00;1.00;;;;;;6123499;23;20965;-54
2023/10/13 14:59:39;;;;;;;7.77;7.27;;;27.10;1.00;;;;;;6124103;23;20382;-56
2023/10/13 15:02:04;;;;;;;7.70;7.00;;;26.90;1.00;;;;;;6124073;23;20162;-55
2023/10/13 15:04:33;;;;;;;8.03;6.40;;;26.80;1.00;;;;;;6126547;23;20576;-54
2023/10/13 15:07:02;;;;;;;7.70;7.00;;;26.60;1.00;;;;;;6124834;23;20491;-56
2023/10/13 15:09:29;;;;;;;7.27;6.77;;;26.70;1.00;;;;;;6125123;23;20390;-56
2023/10/13 15:11:54;;;;;;;6.97;6.27;;;26.70;1.00;;;;;;6124681;23;20382;-52
2023/10/13 15:14:22;;;;;;;6.67;6.37;;;26.70;1.00;;;;;;6125095;23;20389;-56
2023/10/13 15:16:48;;;;;;;7.57;6.97;;;26.80;1.00;;;;;;6124905;23;20154;-56
2023/10/13 15:19:16;;;;;;;7.40;6.90;;;26.80;1.00;;;;;;6125416;23;20445;-56
2023/10/13 15:21:43;;;;;;;7.90;7.20;;;26.80;1.00;;;;;;6124623;23;20389;-57
2023/10/13 15:24:16;;;;;;;6.47;6.17;;;26.70;1.00;;;;;;6125230;23;20158;-56
2023/10/13 15:26:47;;;;;;;7.60;7.00;;;26.70;1.00;;;;;;6124872;23;20378;-55
2023/10/13 15:29:17;;;;;;;7.97;7.47;;;26.60;1.00;;;;;;6124863;23;20405;-56
2023/10/13 15:32:04;;;;;;;8.67;7.90;;;26.60;1.00;;;;;;6124452;23;20855;-54
2023/10/13 15:34:29;;;;;;;16.83;14.07;;;26.60;1.00;;;;;;6143995;23;20768;-55
2023/10/13 15:36:56;;;;;;;7.27;6.87;;;26.60;1.00;;;;;;6128231;23;20377;-54
2023/10/13 15:39:31;;;;;;;7.97;7.17;;;26.50;1.00;;;;;;6128078;23;20377;-56
2023/10/13 15:42:02;;;;;;;6.80;6.50;;;26.40;1.00;;;;;;6127822;23;20373;-55
2023/10/13 15:44:31;;;;;;;6.83;6.43;;;26.20;1.00;;;;;;6128279;23;20372;-55
2023/10/13 15:46:59;;;;;;;7.70;6.53;;;26.00;1.00;;;;;;6128466;23;20387;-56
2023/10/13 15:49:27;;;;;;;7.83;7.00;;;26.10;1.00;;;;;;6129138;23;20395;-55
2023/10/13 15:51:56;;;;;;;8.63;8.13;;;26.10;1.00;;;;;;6129577;23;20450;-54
2023/10/13 15:54:22;;;;;;;6.77;6.37;;;26.00;1.00;;;;;;6129450;23;21480;-56
2023/10/13 15:56:50;;;;;;;7.00;6.60;;;25.80;1.00;;;;;;6129564;23;20377;-54
2023/10/13 15:59:16;;;;;;;7.27;6.73;;;25.70;1.00;;;;;;6129535;23;20440;-54
2023/10/13 16:01:42;;;;;;;7.37;6.50;;;25.50;1.00;;;;;;6129791;23;20382;-54
2023/10/13 16:04:11;;;;;;;7.67;7.07;;;25.30;1.00;;;;;;6127770;23;20161;-54
2023/10/13 16:06:41;;;;;;;7.07;6.77;;;25.10;1.00;;;;;;6128160;23;20162;-54
2023/10/13 16:09:22;;;;;;;7.33;6.73;;;24.90;1.00;;;;;;6128807;23;20385;-54
2023/10/13 16:11:49;;;;;;;7.27;6.80;;;24.80;1.00;;;;;;6128950;23;20388;-56
2023/10/13 16:14:17;;;;;;;8.10;7.30;;;24.70;1.00;;;;;;6128635;23;20586;-56
2023/10/13 16:16:48;;;;;;;7.17;6.60;;;24.60;1.00;;;;;;6128862;23;20397;-56
2023/10/13 16:19:21;;;;;;;7.67;6.80;;;24.40;1.00;;;;;;6128577;23;20885;-56
2023/10/13 16:21:47;;;;;;;7.57;7.07;;;24.30;1.00;;;;;;6128986;23;20382;-56
2023/10/13 16:24:17;;;;;;;7.00;6.60;;;24.20;1.00;;;;;;6128253;23;20476;-56
2023/10/13 16:26:49;;;;;;;7.90;7.30;;;24.20;1.00;;;;;;6128867;23;20393;-55
2023/10/13 16:29:17;;;;;;;8.10;7.50;;;24.20;1.00;;;;;;6129106;23;20392;-56
2023/10/13 16:31:45;;;;;;;7.60;6.87;;;24.10;1.00;;;;;;6127974;23;20395;-56
2023/10/13 16:34:17;;;;;;;7.30;6.83;;;24.00;1.00;;;;;;6123438;23;20459;-56
2023/10/13 16:36:48;;;;;;;7.30;6.80;;;23.90;1.00;;;;;;6123793;23;20454;-56